Time;durP1;ratioP1;P1;durP2;ratioP2;P2;SDS_P1;SDS_P2;PMS_P1;PMS_P2;Temp;Humidity;BMP_temperature;BMP_pressure;BME280_temperature;BME280_humidity;BME280_pressure;Samples;Min_cycle;Max_cycle;Signal;HPM_P1;HPM_P2
2022/06/11 00:01:19;;;;;;;1.93;1.40;;;13.10;57.00;;;;;;5035315;28;20177;-82
2022/06/11 00:03:49;;;;;;;2.70;1.80;;;13.10;56.90;;;;;;5058336;28;20186;-82
2022/06/11 00:06:17;;;;;;;4.83;1.90;;;13.20;56.70;;;;;;5074277;28;20168;-81
2022/06/11 00:08:45;;;;;;;1.77;1.53;;;13.30;57.00;;;;;;5063796;28;20180;-83
2022/06/11 00:11:13;;;;;;;4.63;1.93;;;13.40;55.80;;;;;;5042433;28;20662;-82
2022/06/11 00:13:42;;;;;;;4.87;1.57;;;13.40;55.50;;;;;;5060807;28;20209;-84
2022/06/11 00:16:11;;;;;;;4.83;1.93;;;13.60;55.90;;;;;;5037416;28;20180;-84
2022/06/11 00:18:43;;;;;;;5.30;1.90;;;13.60;55.10;;;;;;5056330;28;20541;-87
2022/06/11 00:21:13;;;;;;;2.20;1.60;;;13.70;54.50;;;;;;5061539;28;20723;-81
2022/06/11 00:23:42;;;;;;;2.63;1.80;;;13.70;54.80;;;;;;5073352;28;20175;-82
2022/06/11 00:26:11;;;;;;;4.13;1.73;;;13.80;53.80;;;;;;5073988;28;20288;-82
2022/06/11 00:28:39;;;;;;;5.40;1.93;;;13.70;53.80;;;;;;5059457;28;20171;-78
2022/06/11 00:31:07;;;;;;;2.80;1.40;;;13.80;54.30;;;;;;5039619;28;20247;-84
2022/06/11 00:33:36;;;;;;;1.20;1.10;;;13.80;50.50;;;;;;5034776;28;20250;-77
2022/06/11 00:36:06;;;;;;;1.93;1.27;;;14.00;49.40;;;;;;5034447;28;20179;-82
2022/06/11 00:38:33;;;;;;;1.10;1.00;;;14.00;49.50;;;;;;5036999;28;20658;-81
2022/06/11 00:41:01;;;;;;;1.57;1.00;;;14.10;48.60;;;;;;5033325;28;20204;-82
2022/06/11 00:43:29;;;;;;;1.30;1.20;;;14.10;48.50;;;;;;5063337;28;20263;-80
2022/06/11 00:45:59;;;;;;;5.33;1.00;;;14.20;48.40;;;;;;5062802;28;20184;-85
2022/06/11 00:48:33;;;;;;;2.33;1.27;;;14.20;48.50;;;;;;5033876;28;20203;-83
2022/06/11 00:51:02;;;;;;;2.40;1.10;;;14.30;48.20;;;;;;5043949;28;20207;-82
2022/06/11 00:53:46;;;;;;;1.90;1.00;;;14.40;48.40;;;;;;5040521;28;20685;-81
2022/06/11 00:56:21;;;;;;;3.73;1.47;;;14.40;47.10;;;;;;5033563;28;20176;-82
2022/06/11 00:58:53;;;;;;;3.33;1.00;;;14.40;47.50;;;;;;5033899;28;20168;-76
2022/06/11 01:01:24;;;;;;;3.00;1.13;;;14.50;47.20;;;;;;5063057;28;20190;-79
2022/06/11 01:03:59;;;;;;;1.17;1.07;;;14.60;47.50;;;;;;5073614;28;20233;-81
2022/06/11 01:06:45;;;;;;;1.90;1.00;;;14.80;47.70;;;;;;5071516;28;20178;-75
2022/06/11 01:09:13;;;;;;;1.03;0.93;;;15.10;46.60;;;;;;5062236;28;20190;-85
2022/06/11 01:11:52;;;;;;;1.43;0.70;;;15.10;44.90;;;;;;5033528;28;20211;-74
2022/06/11 01:14:43;;;;;;;2.13;0.87;;;14.90;44.80;;;;;;5061567;28;20179;-78
2022/06/11 01:17:28;;;;;;;2.10;0.97;;;15.10;44.90;;;;;;5045650;28;20527;-82
2022/06/11 01:20:08;;;;;;;1.43;0.90;;;15.20;44.40;;;;;;5033749;28;20212;-80
2022/06/11 01:23:07;;;;;;;2.57;1.00;;;15.40;44.40;;;;;;5063416;28;20182;-81
2022/06/11 01:26:19;;;;;;;0.80;0.80;;;15.30;44.40;;;;;;5066858;28;20231;-76
2022/06/11 01:29:16;;;;;;;1.27;0.90;;;15.30;44.00;;;;;;5045388;28;20199;-78
2022/06/11 01:32:07;;;;;;;1.30;1.10;;;15.40;43.90;;;;;;5048572;28;20262;-83
2022/06/11 01:34:40;;;;;;;0.80;0.80;;;15.50;44.30;;;;;;5033415;28;20169;-80
2022/06/11 01:37:14;;;;;;;0.93;0.73;;;15.60;43.10;;;;;;5033891;28;20251;-80
2022/06/11 01:40:12;;;;;;;1.00;0.90;;;15.60;43.60;;;;;;5035804;28;20247;-80
2022/06/11 01:42:42;;;;;;;1.07;0.90;;;15.80;43.40;;;;;;5044097;28;20199;-85
2022/06/11 01:45:14;;;;;;;1.70;0.90;;;15.80;43.40;;;;;;5033415;28;20230;-77
2022/06/11 01:47:44;;;;;;;2.07;1.20;;;15.80;43.40;;;;;;5041539;28;20189;-82
2022/06/11 01:50:14;;;;;;;1.27;0.80;;;15.90;43.70;;;;;;5053003;28;20240;-86
2022/06/11 01:52:47;;;;;;;1.67;1.00;;;16.00;44.00;;;;;;5033982;28;20295;-82
2022/06/11 01:55:51;;;;;;;1.10;1.00;;;16.10;43.30;;;;;;5046374;28;20180;-85
2022/06/11 01:58:40;;;;;;;2.07;1.00;;;16.20;43.00;;;;;;5031653;28;20570;-79
2022/06/11 02:01:26;;;;;;;0.83;0.70;;;16.40;42.30;;;;;;5037270;28;20262;-80
2022/06/11 02:04:31;;;;;;;1.30;1.00;;;16.50;41.20;;;;;;5062549;28;20186;-84
2022/06/11 02:07:24;;;;;;;1.00;0.90;;;16.60;41.40;;;;;;5033324;28;20169;-81
2022/06/11 02:10:27;;;;;;;3.30;1.10;;;16.70;40.60;;;;;;5062399;28;20256;-77
2022/06/11 02:13:26;;;;;;;0.77;0.70;;;16.80;40.30;;;;;;5047704;28;20191;-74
2022/06/11 02:16:13;;;;;;;0.80;0.80;;;16.60;40.20;;;;;;5033134;28;20198;-79
2022/06/11 02:18:42;;;;;;;1.07;0.80;;;16.70;40.20;;;;;;5032413;28;20253;-76
2022/06/11 02:21:13;;;;;;;1.07;0.70;;;16.70;39.70;;;;;;5032764;28;20198;-76
2022/06/11 02:23:49;;;;;;;3.83;1.07;;;16.60;40.20;;;;;;5032913;28;20195;-77
2022/06/11 02:26:27;;;;;;;0.67;0.67;;;16.70;40.10;;;;;;5031716;28;20234;-83
2022/06/11 02:28:57;;;;;;;0.80;0.80;;;16.80;40.60;;;;;;5044247;28;20205;-86
2022/06/11 02:31:32;;;;;;;0.83;0.70;;;16.90;40.00;;;;;;5054896;28;20297;-78
2022/06/11 02:34:03;;;;;;;0.53;0.50;;;16.90;39.70;;;;;;5032856;28;20263;-84
2022/06/11 02:36:43;;;;;;;0.80;0.70;;;16.80;39.70;;;;;;5045791;28;20209;-76
2022/06/11 02:39:12;;;;;;;0.93;0.60;;;16.70;40.00;;;;;;5042531;28;20176;-76
2022/06/11 02:41:42;;;;;;;1.13;0.80;;;16.80;40.10;;;;;;5031207;28;20658;-78
2022/06/11 02:44:09;;;;;;;1.63;0.83;;;16.80;39.90;;;;;;5040014;28;20672;-84
2022/06/11 02:46:43;;;;;;;1.00;0.90;;;16.80;39.80;;;;;;5050075;28;20167;-85
2022/06/11 02:49:21;;;;;;;2.37;0.80;;;17.00;40.20;;;;;;5072587;28;20187;-78
2022/06/11 02:51:50;;;;;;;1.33;0.70;;;17.10;39.70;;;;;;5050475;28;20208;-84
2022/06/11 02:54:20;;;;;;;2.80;0.80;;;17.20;39.10;;;;;;5036283;28;20180;-77
2022/06/11 02:56:50;;;;;;;1.37;0.80;;;17.10;39.60;;;;;;5036123;28;20184;-76
2022/06/11 02:59:18;;;;;;;1.50;0.90;;;17.00;39.40;;;;;;5035834;28;20176;-82
2022/06/11 03:01:45;;;;;;;2.20;0.83;;;17.00;39.50;;;;;;5036526;28;20164;-81
2022/06/11 03:04:14;;;;;;;1.33;0.80;;;17.30;39.70;;;;;;5035863;28;20266;-80
2022/06/11 03:06:42;;;;;;;1.27;0.90;;;17.30;38.80;;;;;;5036104;28;20588;-79
2022/06/11 03:09:14;;;;;;;1.23;0.70;;;17.30;38.90;;;;;;5046686;28;20180;-75
2022/06/11 03:11:41;;;;;;;1.13;0.70;;;17.20;38.50;;;;;;5039000;28;20611;-82
2022/06/11 03:14:09;;;;;;;1.73;0.70;;;17.30;38.50;;;;;;5034415;28;20173;-82
2022/06/11 03:16:37;;;;;;;1.00;0.90;;;17.40;37.90;;;;;;5046466;28;20228;-84
2022/06/11 03:19:07;;;;;;;0.93;0.77;;;17.80;37.90;;;;;;5051899;28;20638;-81
2022/06/11 03:21:34;;;;;;;1.30;0.80;;;17.90;36.70;;;;;;5036014;28;20214;-79
2022/06/11 03:24:02;;;;;;;1.90;0.60;;;17.80;36.30;;;;;;5036027;28;20184;-80
2022/06/11 03:26:30;;;;;;;1.63;0.70;;;17.90;35.90;;;;;;5035086;28;20260;-79
2022/06/11 03:28:58;;;;;;;1.60;0.77;;;18.10;35.10;;;;;;5035413;28;20179;-81
2022/06/11 03:31:25;;;;;;;3.23;0.90;;;18.20;35.10;;;;;;5036133;28;20216;-78
2022/06/11 03:33:53;;;;;;;0.90;0.70;;;18.40;34.90;;;;;;5035927;28;20164;-74
2022/06/11 03:36:20;;;;;;;1.07;0.70;;;18.30;34.00;;;;;;5035296;28;20591;-77
2022/06/11 03:38:48;;;;;;;2.83;0.80;;;18.30;32.70;;;;;;5043222;28;20195;-76
2022/06/11 03:41:17;;;;;;;1.77;0.63;;;18.00;33.30;;;;;;5037469;28;20176;-80
2022/06/11 03:43:45;;;;;;;1.73;0.87;;;18.10;32.60;;;;;;5034318;28;20603;-77
2022/06/11 03:46:12;;;;;;;1.83;0.80;;;18.20;32.40;;;;;;5034954;28;20188;-78
2022/06/11 03:48:40;;;;;;;3.67;0.70;;;18.10;31.30;;;;;;5035431;28;20199;-74
2022/06/11 03:51:08;;;;;;;1.57;1.00;;;18.40;30.50;;;;;;5035175;28;20227;-76
2022/06/11 03:53:37;;;;;;;1.50;0.90;;;18.50;31.30;;;;;;5035155;28;20201;-79
2022/06/11 03:56:06;;;;;;;0.77;0.70;;;18.60;30.60;;;;;;5035017;28;20275;-77
2022/06/11 03:58:35;;;;;;;1.90;0.87;;;18.60;30.70;;;;;;5035037;28;20534;-74
2022/06/11 04:01:15;;;;;;;2.57;1.00;;;18.70;31.20;;;;;;5035163;28;20187;-73
2022/06/11 04:03:45;;;;;;;1.90;0.83;;;18.90;31.30;;;;;;5035108;28;20586;-76
2022/06/11 04:06:17;;;;;;;1.77;0.97;;;19.20;31.30;;;;;;5050403;28;20183;-81
2022/06/11 04:08:46;;;;;;;1.60;0.70;;;19.10;31.10;;;;;;5042392;28;20221;-79
2022/06/11 04:11:15;;;;;;;2.43;0.67;;;19.00;30.40;;;;;;5042532;28;20278;-79
2022/06/11 04:13:44;;;;;;;1.77;0.80;;;19.20;30.60;;;;;;5034972;28;20196;-75
2022/06/11 04:16:34;;;;;;;2.77;0.90;;;19.10;30.90;;;;;;5034746;28;20184;-80
2022/06/11 04:19:05;;;;;;;1.73;0.90;;;18.10;32.20;;;;;;5035140;28;20446;-76
2022/06/11 04:21:34;;;;;;;3.83;0.90;;;18.30;32.50;;;;;;5035166;28;20203;-80
2022/06/11 04:24:04;;;;;;;3.10;1.00;;;18.70;31.90;;;;;;5034827;28;20333;-83
2022/06/11 04:26:36;;;;;;;1.33;0.70;;;19.20;31.50;;;;;;5034213;28;20231;-76
2022/06/11 04:29:05;;;;;;;1.77;0.70;;;18.80;31.50;;;;;;5034716;28;20181;-85
2022/06/11 04:31:34;;;;;;;2.13;0.90;;;17.80;32.80;;;;;;5034385;28;20216;-81
2022/06/11 04:34:03;;;;;;;1.23;0.90;;;17.60;33.30;;;;;;5034920;28;20223;-82
2022/06/11 04:36:32;;;;;;;1.73;0.80;;;17.50;33.70;;;;;;5035055;28;20177;-83
2022/06/11 04:39:00;;;;;;;3.60;0.90;;;17.60;33.70;;;;;;5044573;28;20175;-83
2022/06/11 04:41:28;;;;;;;2.87;0.90;;;18.00;33.40;;;;;;5036530;28;20180;-76
2022/06/11 04:43:56;;;;;;;2.30;0.70;;;18.80;30.80;;;;;;5034612;28;20254;-79
2022/06/11 04:46:23;;;;;;;1.80;1.00;;;18.90;30.80;;;;;;5033659;28;20267;-80
2022/06/11 04:48:50;;;;;;;3.23;0.90;;;19.10;30.10;;;;;;5034426;28;20188;-82
2022/06/11 04:51:19;;;;;;;2.90;0.70;;;19.20;30.50;;;;;;5033844;28;20208;-82
2022/06/11 04:53:48;;;;;;;1.60;0.70;;;19.70;29.80;;;;;;5032708;28;20180;-83
2022/06/11 04:56:19;;;;;;;1.30;0.87;;;19.40;29.40;;;;;;5033614;28;20188;-82
2022/06/11 04:58:48;;;;;;;1.20;0.87;;;19.50;29.50;;;;;;5049787;28;20658;-75
2022/06/11 05:01:17;;;;;;;4.20;0.90;;;19.60;29.70;;;;;;5033836;28;20188;-76
2022/06/11 05:03:46;;;;;;;1.70;0.70;;;19.30;29.80;;;;;;5032693;28;20187;-81
2022/06/11 05:06:17;;;;;;;1.73;0.80;;;19.20;30.30;;;;;;5034272;28;20187;-81
2022/06/11 05:08:45;;;;;;;2.43;1.00;;;19.30;30.30;;;;;;5042297;28;20586;-86
2022/06/11 05:11:12;;;;;;;1.40;0.83;;;19.30;30.00;;;;;;5053979;28;20632;-84
2022/06/11 05:13:40;;;;;;;2.10;0.70;;;19.60;30.20;;;;;;5032407;28;20502;-84
2022/06/11 05:16:08;;;;;;;1.27;0.70;;;19.80;29.70;;;;;;5033613;28;20188;-82
2022/06/11 05:18:36;;;;;;;1.67;0.90;;;19.70;28.80;;;;;;5033898;28;20172;-82
2022/06/11 05:21:04;;;;;;;2.10;0.90;;;19.40;29.50;;;;;;5033710;28;20173;-74
2022/06/11 05:23:31;;;;;;;3.07;0.80;;;19.20;30.20;;;;;;5032411;28;20176;-83
2022/06/11 05:26:00;;;;;;;1.03;0.70;;;19.80;29.60;;;;;;5033425;28;20718;-84
2022/06/11 05:28:30;;;;;;;2.07;0.83;;;19.80;29.50;;;;;;5033613;28;20164;-87
2022/06/11 05:30:58;;;;;;;1.80;0.73;;;19.50;29.80;;;;;;5033333;28;20562;-84
2022/06/11 05:33:27;;;;;;;2.87;0.73;;;19.70;29.50;;;;;;5044070;28;20180;-77
2022/06/11 05:35:55;;;;;;;1.53;1.00;;;19.40;28.20;;;;;;5045409;28;20184;-81
2022/06/11 05:38:26;;;;;;;1.23;0.97;;;18.70;29.30;;;;;;5060348;28;20257;-81
2022/06/11 05:40:55;;;;;;;1.20;0.70;;;18.50;29.60;;;;;;5036339;28;20555;-79
2022/06/11 05:43:23;;;;;;;1.20;0.70;;;18.30;30.00;;;;;;5034468;28;20180;-78
2022/06/11 05:45:54;;;;;;;2.20;0.80;;;18.50;29.60;;;;;;5041136;28;20178;-84
2022/06/11 05:48:28;;;;;;;2.77;0.90;;;18.20;30.50;;;;;;5066994;28;20184;-79
2022/06/11 05:50:58;;;;;;;1.77;1.00;;;18.30;30.40;;;;;;5045088;28;20230;-82
2022/06/11 05:53:28;;;;;;;1.60;0.93;;;18.50;30.50;;;;;;5042215;28;20227;-78
2022/06/11 05:55:58;;;;;;;1.93;1.00;;;18.40;30.30;;;;;;5042451;28;20787;-81
2022/06/11 05:58:49;;;;;;;3.07;1.10;;;18.40;31.00;;;;;;5036605;28;20180;-77
2022/06/11 06:01:21;;;;;;;2.87;1.20;;;18.00;31.00;;;;;;5057066;28;20704;-85
2022/06/11 06:03:48;;;;;;;4.07;1.30;;;17.80;31.80;;;;;;5036195;28;20169;-77
2022/06/11 06:06:19;;;;;;;3.10;0.97;;;17.70;31.90;;;;;;5032156;28;20176;-88
2022/06/11 06:08:47;;;;;;;1.50;1.03;;;16.90;33.40;;;;;;5064064;28;20217;-78
2022/06/11 06:11:14;;;;;;;2.70;1.10;;;16.80;33.80;;;;;;5038632;28;20571;-78
2022/06/11 06:13:47;;;;;;;2.33;1.20;;;16.40;34.40;;;;;;5032973;28;20186;-75
2022/06/11 06:16:20;;;;;;;2.30;1.00;;;16.30;34.60;;;;;;5034601;28;20187;-80
2022/06/11 06:18:49;;;;;;;2.37;0.80;;;16.10;35.20;;;;;;5063730;28;20253;-77
2022/06/11 06:21:18;;;;;;;1.37;1.00;;;15.90;35.50;;;;;;5047900;28;20187;-83
2022/06/11 06:23:46;;;;;;;2.20;1.07;;;15.80;36.00;;;;;;5034402;28;20226;-78
2022/06/11 06:26:13;;;;;;;2.03;0.97;;;15.70;36.40;;;;;;5034958;28;20306;-77
2022/06/11 06:28:41;;;;;;;2.17;1.10;;;15.70;36.50;;;;;;5042830;28;20187;-81
2022/06/11 06:31:10;;;;;;;3.13;1.20;;;15.50;37.10;;;;;;5044416;28;20216;-83
2022/06/11 06:33:38;;;;;;;1.63;1.00;;;15.30;37.50;;;;;;5033378;28;20199;-81
2022/06/11 06:36:07;;;;;;;1.83;1.10;;;15.20;38.00;;;;;;5049435;28;20180;-78
2022/06/11 06:38:37;;;;;;;2.80;1.33;;;15.20;38.20;;;;;;5044350;28;20176;-78
2022/06/11 06:41:05;;;;;;;2.30;1.17;;;15.00;38.90;;;;;;5047292;28;20184;-75
2022/06/11 06:43:33;;;;;;;1.50;1.10;;;15.00;39.00;;;;;;5038602;28;20184;-78
2022/06/11 06:46:01;;;;;;;1.83;1.43;;;14.90;39.30;;;;;;5035761;28;20669;-84
2022/06/11 06:48:29;;;;;;;3.53;1.10;;;14.80;40.10;;;;;;5032125;28;20182;-74
2022/06/11 06:50:57;;;;;;;4.60;1.30;;;14.70;40.40;;;;;;5042927;28;20617;-77
2022/06/11 06:53:26;;;;;;;2.47;1.17;;;14.60;40.20;;;;;;5037296;28;20183;-80
2022/06/11 06:55:56;;;;;;;2.80;1.50;;;14.50;40.60;;;;;;5039035;28;20291;-83
2022/06/11 06:58:24;;;;;;;1.13;1.00;;;14.40;41.10;;;;;;5044216;28;20185;-80
2022/06/11 07:00:52;;;;;;;2.23;1.07;;;14.30;41.20;;;;;;5032578;28;20267;-83
2022/06/11 07:03:20;;;;;;;4.10;1.40;;;14.30;41.40;;;;;;5046904;28;20263;-79
2022/06/11 07:05:50;;;;;;;2.10;1.43;;;14.20;41.50;;;;;;5043725;28;20637;-84
2022/06/11 07:08:18;;;;;;;3.27;1.53;;;14.20;41.60;;;;;;5051075;28;20260;-76
2022/06/11 07:10:54;;;;;;;1.97;1.40;;;14.00;42.00;;;;;;5041001;28;20212;-75
2022/06/11 07:13:23;;;;;;;2.17;1.23;;;14.00;41.30;;;;;;5045810;28;20634;-84
2022/06/11 07:15:56;;;;;;;1.77;1.20;;;14.10;41.30;;;;;;5031791;28;20544;-83
2022/06/11 07:18:47;;;;;;;2.97;1.33;;;14.00;41.60;;;;;;5055229;28;20200;-83
2022/06/11 07:21:22;;;;;;;1.40;1.20;;;13.90;41.90;;;;;;5034564;28;20275;-82
2022/06/11 07:23:58;;;;;;;2.33;1.30;;;13.80;42.30;;;;;;5032812;28;20172;-80
2022/06/11 07:26:34;;;;;;;5.13;1.70;;;13.80;42.10;;;;;;5052674;28;20219;-80
2022/06/11 07:29:28;;;;;;;1.83;1.27;;;13.70;42.50;;;;;;5058877;28;20183;-75
2022/06/11 07:32:01;;;;;;;1.93;1.20;;;13.70;42.40;;;;;;5044692;28;20270;-79
2022/06/11 07:34:29;;;;;;;1.53;1.40;;;13.60;42.40;;;;;;5049868;28;20238;-81
2022/06/11 07:36:58;;;;;;;1.70;1.30;;;13.60;42.40;;;;;;5039757;28;20180;-82
2022/06/11 07:39:26;;;;;;;4.80;1.10;;;13.60;42.20;;;;;;5044563;28;20259;-80
2022/06/11 07:41:54;;;;;;;3.10;1.47;;;13.60;42.00;;;;;;5055311;28;20176;-75
2022/06/11 07:44:21;;;;;;;1.43;1.30;;;13.60;42.10;;;;;;5036608;28;20173;-76
2022/06/11 07:46:49;;;;;;;4.83;1.50;;;13.50;42.20;;;;;;5039740;28;20568;-82
2022/06/11 07:49:16;;;;;;;2.73;1.40;;;13.40;42.50;;;;;;5040635;28;20268;-84
2022/06/11 07:51:43;;;;;;;3.17;1.43;;;13.40;42.70;;;;;;5047692;28;20294;-75
2022/06/11 07:54:11;;;;;;;3.67;1.63;;;13.30;42.80;;;;;;5035510;28;20653;-79
2022/06/11 07:56:38;;;;;;;3.37;1.83;;;13.20;42.90;;;;;;5043393;28;20179;-82
2022/06/11 07:59:07;;;;;;;3.97;1.90;;;13.20;43.00;;;;;;5044646;28;20188;-76
2022/06/11 08:01:34;;;;;;;2.00;1.50;;;13.20;43.20;;;;;;5033753;28;20204;-79
2022/06/11 08:04:02;;;;;;;4.93;1.67;;;13.20;43.20;;;;;;5035178;28;20180;-81
2022/06/11 08:06:31;;;;;;;5.13;1.97;;;13.10;43.50;;;;;;5034219;28;20223;-85
2022/06/11 08:08:59;;;;;;;4.33;2.00;;;13.00;43.80;;;;;;5043992;28;20643;-80
2022/06/11 08:11:26;;;;;;;2.63;1.80;;;12.90;43.90;;;;;;5037024;28;20565;-73
2022/06/11 08:13:53;;;;;;;3.77;1.63;;;12.90;44.20;;;;;;5036111;28;20647;-84
2022/06/11 08:16:21;;;;;;;2.27;1.53;;;12.80;44.10;;;;;;5050889;28;20233;-75
2022/06/11 08:18:49;;;;;;;2.93;1.47;;;12.80;44.40;;;;;;5045485;28;20264;-79
2022/06/11 08:21:16;;;;;;;2.70;1.70;;;12.80;44.10;;;;;;5039663;28;20271;-77
2022/06/11 08:23:43;;;;;;;2.87;1.40;;;12.80;44.10;;;;;;5034840;28;20169;-84
2022/06/11 08:26:11;;;;;;;3.70;2.10;;;12.80;44.30;;;;;;5033849;28;20228;-77
2022/06/11 08:28:39;;;;;;;4.37;1.67;;;12.70;44.30;;;;;;5033817;28;20661;-77
2022/06/11 08:31:06;;;;;;;3.70;1.90;;;12.70;44.40;;;;;;5049850;28;20211;-81
2022/06/11 08:33:34;;;;;;;4.83;1.80;;;12.60;44.70;;;;;;5037999;28;20659;-76
2022/06/11 08:36:02;;;;;;;2.27;1.70;;;12.60;44.90;;;;;;5058033;28;20175;-76
2022/06/11 08:38:29;;;;;;;4.23;1.83;;;12.50;44.90;;;;;;5037630;28;20263;-77
2022/06/11 08:40:57;;;;;;;3.43;1.63;;;12.50;45.10;;;;;;5047231;28;20276;-79
2022/06/11 08:43:27;;;;;;;2.53;2.00;;;12.40;45.30;;;;;;5033767;28;20673;-78
2022/06/11 08:46:15;;;;;;;2.10;1.70;;;12.40;45.20;;;;;;5042954;28;20200;-84
2022/06/11 08:49:04;;;;;;;3.73;1.70;;;12.30;45.40;;;;;;5034371;28;20172;-76
2022/06/11 08:51:35;;;;;;;4.30;1.97;;;12.40;45.20;;;;;;5050364;28;20573;-83
2022/06/11 08:54:10;;;;;;;4.23;2.00;;;12.40;45.40;;;;;;5052080;28;20186;-84
2022/06/11 08:56:43;;;;;;;4.13;1.97;;;12.30;45.80;;;;;;5051760;28;20180;-75
2022/06/11 08:59:24;;;;;;;4.03;1.87;;;12.20;45.90;;;;;;5033619;28;20520;-80
2022/06/11 09:02:12;;;;;;;3.67;1.90;;;12.20;45.80;;;;;;5034148;28;20183;-81
2022/06/11 09:04:59;;;;;;;9.33;2.10;;;12.20;46.00;;;;;;5073201;28;20177;-81
2022/06/11 09:07:42;;;;;;;5.03;2.10;;;12.10;46.30;;;;;;5033847;28;20234;-78
2022/06/11 09:10:46;;;;;;;4.90;2.47;;;12.00;46.40;;;;;;5046229;28;20203;-82
2022/06/11 09:13:14;;;;;;;5.17;2.47;;;12.00;47.10;;;;;;5054377;28;20712;-80
2022/06/11 09:15:55;;;;;;;3.27;1.70;;;11.90;47.30;;;;;;5049090;28;20192;-79
2022/06/11 09:18:50;;;;;;;5.80;2.17;;;11.90;47.30;;;;;;5033562;28;20204;-83
2022/06/11 09:21:23;;;;;;;4.80;2.33;;;11.80;47.30;;;;;;5033293;28;20180;-83
2022/06/11 09:24:24;;;;;;;5.00;2.00;;;11.80;47.40;;;;;;5050980;28;20246;-78
2022/06/11 09:27:05;;;;;;;5.07;2.60;;;11.80;47.20;;;;;;5037231;28;20254;-73
2022/06/11 09:30:06;;;;;;;4.63;2.00;;;11.80;47.40;;;;;;5039396;28;20191;-80
2022/06/11 09:32:45;;;;;;;2.80;1.80;;;11.80;47.20;;;;;;5048818;28;20254;-81
2022/06/11 09:35:16;;;;;;;5.73;2.40;;;11.80;47.10;;;;;;5036475;28;20184;-78
2022/06/11 09:38:05;;;;;;;5.23;1.60;;;11.80;47.20;;;;;;5068589;28;20186;-80
2022/06/11 09:40:50;;;;;;;4.87;1.90;;;11.70;47.60;;;;;;5063140;28;20208;-80
2022/06/11 09:43:33;;;;;;;5.67;2.30;;;11.70;47.40;;;;;;5032709;28;20179;-80
2022/06/11 09:46:09;;;;;;;6.90;2.47;;;11.70;47.50;;;;;;5061649;28;20181;-85
2022/06/11 09:48:51;;;;;;;4.90;1.87;;;11.70;47.90;;;;;;5047726;28;20221;-84
2022/06/11 09:51:34;;;;;;;7.53;2.23;;;11.60;48.00;;;;;;5048531;28;20223;-81
2022/06/11 09:54:17;;;;;;;6.40;2.20;;;11.50;48.30;;;;;;5052905;28;20184;-81
2022/06/11 09:57:09;;;;;;;4.67;2.30;;;11.40;48.90;;;;;;5058764;28;20187;-77
2022/06/11 09:59:45;;;;;;;7.73;2.17;;;11.30;49.50;;;;;;5033202;28;20237;-82
2022/06/11 10:02:49;;;;;;;5.37;2.20;;;11.30;49.30;;;;;;5031672;28;20713;-79
2022/06/11 10:05:35;;;;;;;3.70;2.00;;;11.30;49.30;;;;;;5031448;28;20184;-85
2022/06/11 10:08:18;;;;;;;7.10;2.17;;;11.30;49.00;;;;;;5054235;28;20191;-77
2022/06/11 10:10:51;;;;;;;4.33;2.03;;;11.30;49.20;;;;;;5032804;28;20215;-80
2022/06/11 10:13:42;;;;;;;5.10;2.03;;;11.30;49.30;;;;;;5031948;28;20216;-87
2022/06/11 10:16:29;;;;;;;3.37;1.70;;;11.40;48.80;;;;;;5049718;28;20551;-79
2022/06/11 10:19:14;;;;;;;5.47;1.77;;;11.30;48.70;;;;;;5042208;28;20651;-76
2022/06/11 10:21:55;;;;;;;3.23;1.60;;;11.50;48.60;;;;;;5032304;28;20374;-82
2022/06/11 10:24:26;;;;;;;8.33;2.00;;;11.50;48.40;;;;;;5049167;28;20585;-82
2022/06/11 10:27:00;;;;;;;5.20;1.97;;;11.50;48.40;;;;;;5050603;28;20583;-82
2022/06/11 10:29:56;;;;;;;3.10;1.87;;;11.40;48.70;;;;;;5047931;28;20183;-74
2022/06/11 10:32:30;;;;;;;6.10;1.70;;;11.30;48.70;;;;;;5032222;28;20275;-75
2022/06/11 10:35:13;;;;;;;3.20;1.80;;;11.30;48.80;;;;;;5031171;28;20176;-79
2022/06/11 10:37:55;;;;;;;7.17;2.07;;;11.30;49.20;;;;;;5055959;28;20184;-82
2022/06/11 10:40:33;;;;;;;8.03;2.10;;;11.20;49.10;;;;;;5046871;28;20183;-78
2022/06/11 10:43:18;;;;;;;4.83;2.10;;;11.20;49.50;;;;;;5031970;28;20172;-88
2022/06/11 10:45:49;;;;;;;4.47;2.20;;;11.20;49.60;;;;;;5035846;28;20183;-76
2022/06/11 10:48:20;;;;;;;4.73;2.07;;;11.20;49.80;;;;;;5032212;28;20176;-77
2022/06/11 10:50:48;;;;;;;6.10;2.00;;;11.10;50.00;;;;;;5031994;28;20210;-81
2022/06/11 10:53:48;;;;;;;7.07;2.27;;;11.10;50.10;;;;;;5032755;28;20187;-81
2022/06/11 10:56:26;;;;;;;4.73;2.03;;;11.00;50.20;;;;;;5036865;28;20177;-74
2022/06/11 10:59:13;;;;;;;5.20;2.00;;;11.00;50.20;;;;;;5036654;28;20185;-82
2022/06/11 11:01:47;;;;;;;4.80;2.00;;;11.00;50.10;;;;;;5032602;28;20184;-84
2022/06/11 11:04:53;;;;;;;6.93;1.90;;;11.00;50.20;;;;;;5034936;28;20695;-80
2022/06/11 11:07:21;;;;;;;3.37;1.97;;;11.00;50.00;;;;;;5041159;28;20178;-77
2022/06/11 11:09:49;;;;;;;4.40;2.03;;;11.00;50.40;;;;;;5050661;28;20180;-74
2022/06/11 11:12:48;;;;;;;6.20;2.20;;;11.00;50.20;;;;;;5035432;28;20592;-78
2022/06/11 11:15:19;;;;;;;8.07;2.10;;;11.00;50.30;;;;;;5044187;28;20541;-77
2022/06/11 11:17:55;;;;;;;3.33;1.80;;;11.00;50.40;;;;;;5044306;28;20518;-79
2022/06/11 11:20:46;;;;;;;4.83;1.93;;;10.90;50.40;;;;;;5035483;28;20198;-77
2022/06/11 11:23:23;;;;;;;7.27;2.23;;;10.90;50.60;;;;;;5039594;28;20187;-81
2022/06/11 11:26:01;;;;;;;5.40;2.00;;;10.90;50.80;;;;;;5035930;28;20282;-76
2022/06/11 11:28:37;;;;;;;3.90;1.83;;;10.80;50.90;;;;;;5035002;28;20183;-80
2022/06/11 11:31:16;;;;;;;4.87;1.90;;;10.90;50.70;;;;;;5051219;28;20215;-75
2022/06/11 11:34:15;;;;;;;4.33;1.90;;;10.90;50.40;;;;;;5040660;28;20175;-78
2022/06/11 11:36:43;;;;;;;4.83;1.93;;;10.90;50.60;;;;;;5035356;28;20215;-80
2022/06/11 11:39:13;;;;;;;6.57;2.50;;;10.80;50.70;;;;;;5041169;28;20313;-74
2022/06/11 11:42:07;;;;;;;5.20;2.37;;;10.70;51.10;;;;;;5046059;28;20184;-84
2022/06/11 11:44:57;;;;;;;6.77;3.07;;;10.70;51.10;;;;;;5052137;28;20191;-79
2022/06/11 11:47:39;;;;;;;5.90;2.17;;;10.70;51.10;;;;;;5038534;28;20241;-79
2022/06/11 11:50:13;;;;;;;5.80;2.37;;;10.70;51.00;;;;;;5040319;28;20183;-79
2022/06/11 11:52:55;;;;;;;5.47;2.30;;;10.70;51.30;;;;;;5035640;28;20187;-84
2022/06/11 11:55:37;;;;;;;9.00;2.30;;;10.60;51.60;;;;;;5037939;28;20217;-86
2022/06/11 11:58:06;;;;;;;7.83;2.10;;;10.50;51.90;;;;;;5043446;28;20189;-80
2022/06/11 12:00:50;;;;;;;4.57;2.33;;;10.30;52.40;;;;;;5049878;28;20623;-79
2022/06/11 12:03:34;;;;;;;6.60;2.10;;;10.30;52.60;;;;;;5065276;28;20583;-75
2022/06/11 12:06:03;;;;;;;7.77;2.87;;;10.30;52.80;;;;;;5048958;28;20225;-80
2022/06/11 12:08:56;;;;;;;5.90;2.30;;;10.20;52.90;;;;;;5048506;28;20539;-79
2022/06/11 12:11:29;;;;;;;5.40;2.20;;;10.20;53.00;;;;;;5045942;28;20225;-83
2022/06/11 12:14:02;;;;;;;5.80;2.70;;;10.20;53.00;;;;;;5034582;28;20179;-80
2022/06/11 12:16:36;;;;;;;6.37;2.17;;;10.10;52.90;;;;;;5055234;28;20271;-81
2022/06/11 12:19:12;;;;;;;4.27;2.10;;;10.00;53.30;;;;;;5061997;28;20178;-80
2022/06/11 12:21:43;;;;;;;4.53;2.60;;;10.00;53.90;;;;;;5043215;28;20190;-81
2022/06/11 12:24:17;;;;;;;8.70;2.10;;;9.90;54.00;;;;;;5039047;28;20648;-80
2022/06/11 12:27:00;;;;;;;6.10;2.47;;;9.90;54.00;;;;;;5034721;28;20584;-86
2022/06/11 12:29:51;;;;;;;5.87;2.47;;;9.90;54.00;;;;;;5034687;28;20261;-85
2022/06/11 12:32:21;;;;;;;6.10;2.13;;;9.80;54.20;;;;;;5037495;28;20190;-84
2022/06/11 12:34:49;;;;;;;6.53;2.33;;;9.80;54.50;;;;;;5035992;28;20198;-82
2022/06/11 12:37:25;;;;;;;5.53;2.10;;;9.80;54.80;;;;;;5034495;28;20176;-80
2022/06/11 12:40:25;;;;;;;6.57;2.43;;;9.80;54.80;;;;;;5052611;28;20199;-79
2022/06/11 12:43:19;;;;;;;6.60;2.83;;;9.80;55.20;;;;;;5045423;28;20185;-81
2022/06/11 12:46:25;;;;;;;4.77;2.63;;;9.80;55.60;;;;;;5042955;28;20215;-84
2022/06/11 12:49:05;;;;;;;8.73;2.73;;;9.70;56.00;;;;;;5025313;28;20186;-80
2022/06/11 12:51:48;;;;;;;8.27;2.63;;;9.70;56.40;;;;;;5021957;28;20215;-79
2022/06/11 12:54:56;;;;;;;3.70;2.13;;;9.70;56.70;;;;;;5050081;28;20202;-84
2022/06/11 12:57:59;;;;;;;5.37;2.17;;;9.60;57.00;;;;;;5041576;28;20230;-81
2022/06/11 13:00:42;;;;;;;6.10;2.13;;;9.60;57.10;;;;;;5038304;28;20183;-82
2022/06/11 13:03:15;;;;;;;5.27;2.10;;;9.60;57.90;;;;;;5045665;28;20230;-82
2022/06/11 13:06:12;;;;;;;7.93;2.87;;;9.50;57.70;;;;;;5033404;28;20612;-86
2022/06/11 13:08:52;;;;;;;6.23;2.30;;;9.50;57.80;;;;;;5058980;28;20629;-85
2022/06/11 13:11:37;;;;;;;5.53;2.00;;;9.50;57.80;;;;;;5034078;28;20210;-80
2022/06/11 13:14:15;;;;;;;5.27;2.30;;;9.50;57.70;;;;;;5048795;28;20182;-85
2022/06/11 13:17:23;;;;;;;4.67;2.30;;;9.50;57.90;;;;;;5048858;28;20185;-79
2022/06/11 13:20:09;;;;;;;11.37;3.10;;;9.50;58.20;;;;;;5036531;28;20190;-82
2022/06/11 13:23:17;;;;;;;9.57;2.83;;;9.60;58.20;;;;;;5033074;28;20579;-78
2022/06/11 13:25:59;;;;;;;5.47;2.70;;;9.50;58.20;;;;;;5043805;28;20211;-82
2022/06/11 13:28:42;;;;;;;6.67;2.70;;;9.50;58.00;;;;;;5044238;28;20267;-78
2022/06/11 13:31:27;;;;;;;5.10;2.40;;;9.60;57.50;;;;;;5044141;28;20208;-84